createdAt,value
2023-02-13T00:02:17.124Z,100272.44
2023-02-13T00:04:43.709Z,100278.66
2023-02-13T00:07:11.917Z,100273.50
2023-02-13T00:09:38.875Z,100274.50
2023-02-13T00:14:41.565Z,100270.22
2023-02-13T00:17:08.154Z,100268.88
2023-02-13T00:19:34.716Z,100275.56
2023-02-13T00:22:01.243Z,100272.59
2023-02-13T00:27:00.327Z,100271.06
2023-02-13T00:29:26.996Z,100272.63
2023-02-13T00:31:53.616Z,100275.25
2023-02-13T00:44:28.040Z,100272.16
2023-02-13T00:49:38.511Z,100267.72
2023-02-13T00:52:05.037Z,100265.59
2023-02-13T00:54:31.573Z,100264.56
2023-02-13T00:56:58.116Z,100260.94
2023-02-13T00:59:24.822Z,100261.03
2023-02-13T01:01:51.447Z,100263.97
2023-02-13T01:04:17.984Z,100263.66
2023-02-13T01:06:44.605Z,100253.81
2023-02-13T01:09:11.692Z,100259.78
2023-02-13T01:11:38.286Z,100256.50
2023-02-13T01:14:04.846Z,100250.66
2023-02-13T01:16:31.349Z,100250.59
2023-02-13T01:18:57.889Z,100248.38
2023-02-13T01:21:24.563Z,100263.41
2023-02-13T01:23:51.763Z,100255.78
2023-02-13T01:26:23.943Z,100260.56
2023-02-13T01:28:54.959Z,100253.69
2023-02-13T01:31:22.386Z,100255.34
2023-02-13T01:33:48.965Z,100256.44
2023-02-13T01:36:15.805Z,100257.97
2023-02-13T01:38:42.584Z,100267.06
2023-02-13T01:41:10.117Z,100256.78
2023-02-13T01:43:53.548Z,100263.25
2023-02-13T01:46:26.226Z,100257.28
2023-02-13T01:48:56.239Z,100255.41
2023-02-13T01:51:27.055Z,100247.38
2023-02-13T01:54:00.567Z,100251.34
2023-02-13T01:56:33.864Z,100247.59
2023-02-13T01:59:04.828Z,100249.78
2023-02-13T02:01:32.678Z,100251.34
2023-02-13T02:04:25.369Z,100248.09
2023-02-13T02:07:00.402Z,100244.59
2023-02-13T02:09:32.206Z,100250.31
2023-02-13T02:12:15.002Z,100252.16
2023-02-13T02:14:42.532Z,100248.66
2023-02-13T02:17:10.204Z,100245.69
2023-02-13T02:20:01.702Z,100249.75
2023-02-13T02:23:00.088Z,100248.47
2023-02-13T02:25:54.187Z,100243.75
2023-02-13T02:28:20.655Z,100236.38
2023-02-13T02:31:30.127Z,100236.44
2023-02-13T02:33:56.657Z,100235.88
2023-02-13T02:36:23.196Z,100231.06
2023-02-13T02:39:10.662Z,100237.69
2023-02-13T02:41:48.489Z,100243.25
2023-02-13T02:44:42.711Z,100236.81
2023-02-13T02:47:50.516Z,100235.53
2023-02-13T02:50:25.926Z,100242.94
2023-02-13T02:53:14.089Z,100236.66
2023-02-13T02:55:52.809Z,100245.41
2023-02-13T02:59:02.765Z,100237.78
2023-02-13T03:01:51.090Z,100249.75
2023-02-13T03:04:40.001Z,100243.19
2023-02-13T03:07:09.712Z,100244.44
2023-02-13T03:10:00.195Z,100240.81
2023-02-13T03:12:54.371Z,100244.03
2023-02-13T03:15:22.542Z,100238.06
2023-02-13T03:18:07.810Z,100247.56
2023-02-13T03:21:05.603Z,100250.50
2023-02-13T03:24:00.375Z,100249.88
2023-02-13T03:26:50.810Z,100245.78
2023-02-13T03:30:11.847Z,100254.56
2023-02-13T03:33:10.447Z,100261.50
2023-02-13T03:36:22.912Z,100261.31
2023-02-13T03:39:03.068Z,100258.00
2023-02-13T03:41:47.475Z,100261.25
2023-02-13T03:44:18.345Z,100259.53
2023-02-13T03:50:08.375Z,100267.38
2023-02-13T03:52:43.951Z,100267.53
2023-02-13T03:55:43.247Z,100278.88
2023-02-13T03:58:34.329Z,100287.41
2023-02-13T04:01:05.316Z,100279.78
2023-02-13T04:03:46.667Z,100287.78
2023-02-13T04:06:16.826Z,100288.94
2023-02-13T04:08:43.578Z,100290.66
2023-02-13T04:11:13.678Z,100285.69
2023-02-13T04:13:48.480Z,100298.25
2023-02-13T04:16:33.439Z,100290.41
2023-02-13T04:19:01.370Z,100295.78
2023-02-13T04:21:28.126Z,100292.69
2023-02-13T04:23:54.620Z,100288.94
2023-02-13T04:26:23.446Z,100293.38
2023-02-13T04:28:49.965Z,100298.47
2023-02-13T04:31:16.612Z,100293.59
2023-02-13T04:33:43.245Z,100299.78
2023-02-13T04:36:09.839Z,100296.22
2023-02-13T04:38:36.373Z,100301.03
2023-02-13T04:41:02.980Z,100292.16
2023-02-13T04:43:29.562Z,100296.44
2023-02-13T04:45:56.260Z,100301.38
2023-02-13T04:50:54.444Z,100299.06
2023-02-13T04:53:21.009Z,100297.81
2023-02-13T04:55:47.530Z,100300.66
2023-02-13T04:58:14.130Z,100295.34
2023-02-13T05:00:40.821Z,100299.25
2023-02-13T05:03:09.755Z,100298.50
2023-02-13T05:05:36.343Z,100301.47
2023-02-13T05:08:02.909Z,100302.09
2023-02-13T05:10:29.585Z,100295.34
2023-02-13T05:12:56.272Z,100295.34
2023-02-13T05:15:23.758Z,100301.69
2023-02-13T05:17:50.669Z,100302.38
2023-02-13T05:20:17.991Z,100306.59
2023-02-13T05:23:07.497Z,100312.28
2023-02-13T05:25:35.410Z,100308.94
2023-02-13T05:28:02.059Z,100308.63
2023-02-13T05:30:28.673Z,100307.19
2023-02-13T05:32:55.260Z,100305.63
2023-02-13T05:35:23.052Z,100309.38
2023-02-13T05:37:49.634Z,100312.34
2023-02-13T05:42:55.296Z,100306.31
2023-02-13T05:45:21.870Z,100309.81
2023-02-13T05:47:48.389Z,100302.88
2023-02-13T05:50:15.059Z,100305.81
2023-02-13T05:52:41.631Z,100304.47
2023-02-13T05:55:08.321Z,100298.28
2023-02-13T05:57:34.975Z,100296.09
2023-02-13T06:00:01.613Z,100302.38
2023-02-13T06:02:28.171Z,100296.72
2023-02-13T06:09:59.668Z,100293.28
2023-02-13T06:12:26.391Z,100300.31
2023-02-13T06:14:52.942Z,100297.97
2023-02-13T06:19:50.699Z,100306.09
2023-02-13T06:22:17.204Z,100301.19
2023-02-13T06:24:43.730Z,100304.69
2023-02-13T06:27:10.297Z,100304.56
2023-02-13T06:29:36.918Z,100307.00
2023-02-13T06:32:03.576Z,100312.22
2023-02-13T06:34:30.190Z,100302.31
2023-02-13T06:36:56.808Z,100300.47
2023-02-13T06:39:23.315Z,100300.81
2023-02-13T06:41:49.801Z,100313.19
2023-02-13T06:44:16.306Z,100309.34
2023-02-13T06:46:42.913Z,100304.50
2023-02-13T06:49:10.052Z,100311.63
2023-02-13T06:51:36.589Z,100309.53
2023-02-13T06:54:03.110Z,100310.28
2023-02-13T06:56:29.849Z,100316.25
2023-02-13T06:58:56.344Z,100319.03
2023-02-13T07:01:22.919Z,100313.81
2023-02-13T07:03:49.525Z,100319.31
2023-02-13T07:06:22.114Z,100316.25
2023-02-13T07:08:51.503Z,100315.66
2023-02-13T07:11:22.502Z,100320.16
2023-02-13T07:13:49.577Z,100316.59
2023-02-13T07:16:16.353Z,100326.59
2023-02-13T07:18:42.965Z,100326.88
2023-02-13T07:21:09.499Z,100330.34
2023-02-13T07:23:36.104Z,100335.50
2023-02-13T07:26:02.894Z,100332.94
2023-02-13T07:28:30.066Z,100331.16
2023-02-13T07:30:57.616Z,100333.28
2023-02-13T07:33:24.592Z,100333.41
2023-02-13T07:35:52.498Z,100329.09
2023-02-13T07:38:19.608Z,100334.72
2023-02-13T07:40:46.261Z,100329.84
2023-02-13T07:43:13.512Z,100328.31
2023-02-13T07:45:40.123Z,100332.81
2023-02-13T07:50:39.511Z,100330.84
2023-02-13T07:53:06.053Z,100340.53
2023-02-13T07:55:32.881Z,100344.44
2023-02-13T07:58:00.935Z,100343.13
2023-02-13T08:00:27.618Z,100337.88
2023-02-13T08:02:54.162Z,100331.88
2023-02-13T08:05:20.846Z,100329.28
2023-02-13T08:10:37.381Z,100334.25
2023-02-13T08:13:04.795Z,100326.97
2023-02-13T08:15:31.420Z,100337.78
2023-02-13T08:17:57.980Z,100341.66
2023-02-13T08:20:25.035Z,100343.34
2023-02-13T08:22:51.908Z,100337.19
2023-02-13T08:25:19.759Z,100335.72
2023-02-13T08:27:47.059Z,100339.78
2023-02-13T08:30:15.470Z,100337.19
2023-02-13T08:32:53.491Z,100331.00
2023-02-13T08:35:21.416Z,100334.53
2023-02-13T08:37:48.223Z,100328.91
2023-02-13T08:40:14.959Z,100324.16
2023-02-13T08:42:41.682Z,100330.66
2023-02-13T08:45:10.581Z,100323.41
2023-02-13T08:47:39.884Z,100326.88
2023-02-13T08:50:07.252Z,100319.31
2023-02-13T08:52:34.259Z,100324.44
2023-02-13T08:55:00.787Z,100321.13
2023-02-13T08:57:27.424Z,100318.94
2023-02-13T08:59:53.942Z,100317.72
2023-02-13T09:02:20.519Z,100312.47
2023-02-13T09:04:47.077Z,100320.88
2023-02-13T09:07:13.637Z,100321.88
2023-02-13T09:09:40.192Z,100324.22
2023-02-13T09:12:06.767Z,100319.47
2023-02-13T09:14:33.815Z,100316.69
2023-02-13T09:17:00.441Z,100322.84
2023-02-13T09:19:27.018Z,100324.69
2023-02-13T09:21:53.555Z,100317.50
2023-02-13T09:24:20.157Z,100324.38
2023-02-13T09:29:20.179Z,100324.34
2023-02-13T09:31:46.854Z,100317.59
2023-02-13T09:34:13.493Z,100317.94
2023-02-13T09:36:40.078Z,100317.03
2023-02-13T09:39:06.603Z,100320.16
2023-02-13T09:44:34.976Z,100333.13
2023-02-13T09:47:20.627Z,100329.03
2023-02-13T09:49:54.389Z,100322.66
2023-02-13T09:54:52.202Z,100324.78
2023-02-13T10:00:13.458Z,100316.75
2023-02-13T10:05:43.820Z,100322.59
2023-02-13T10:08:35.914Z,100319.56
2023-02-13T10:11:39.360Z,100326.09
2023-02-13T10:14:32.763Z,100325.50
2023-02-13T10:17:06.374Z,100326.31
2023-02-13T10:19:43.046Z,100312.69
2023-02-13T10:22:14.224Z,100314.25
2023-02-13T10:24:57.513Z,100315.72
2023-02-13T10:27:26.538Z,100311.66
2023-02-13T10:30:19.066Z,100310.69
2023-02-13T10:32:49.372Z,100310.75
2023-02-13T10:35:18.438Z,100310.88
2023-02-13T10:37:51.207Z,100307.66
2023-02-13T10:40:19.177Z,100309.78
2023-02-13T10:42:52.887Z,100303.06
2023-02-13T10:45:37.785Z,100299.97
2023-02-13T10:48:19.597Z,100298.19
2023-02-13T10:51:10.008Z,100300.72
2023-02-13T10:53:51.575Z,100292.84
2023-02-13T10:56:21.165Z,100294.47
2023-02-13T10:59:15.103Z,100280.28
2023-02-13T11:01:56.511Z,100269.06
2023-02-13T11:04:23.770Z,100275.72
2023-02-13T11:07:00.119Z,100274.88
2023-02-13T11:09:27.832Z,100281.16
2023-02-13T11:11:54.757Z,100277.03
2023-02-13T11:14:22.531Z,100268.50
2023-02-13T11:17:05.371Z,100268.75
2023-02-13T11:19:40.298Z,100266.16
2023-02-13T11:25:17.092Z,100260.84
2023-02-13T11:27:45.003Z,100263.97
2023-02-13T11:30:23.226Z,100266.41
2023-02-13T11:33:04.555Z,100267.41
2023-02-13T11:35:34.625Z,100268.09
2023-02-13T11:38:10.376Z,100258.72
2023-02-13T11:40:38.448Z,100262.81
2023-02-13T11:43:08.500Z,100267.75
2023-02-13T11:45:35.960Z,100262.63
2023-02-13T11:48:09.671Z,100257.50
2023-02-13T11:50:37.828Z,100252.53
2023-02-13T11:53:23.846Z,100255.44
2023-02-13T11:56:15.015Z,100258.47
2023-02-13T12:01:21.797Z,100252.66
2023-02-13T12:04:16.527Z,100247.13
2023-02-13T12:07:00.962Z,100249.94
2023-02-13T12:09:29.501Z,100248.81
2023-02-13T12:12:00.785Z,100246.75
2023-02-13T12:14:31.879Z,100242.06
2023-02-13T12:17:12.333Z,100250.94
2023-02-13T12:19:44.370Z,100242.53
2023-02-13T12:22:41.745Z,100235.53
2023-02-13T12:25:30.271Z,100241.81
2023-02-13T12:28:42.074Z,100236.59
2023-02-13T12:31:34.121Z,100239.88
2023-02-13T12:34:37.339Z,100227.19
2023-02-13T12:37:19.958Z,100230.50
2023-02-13T12:43:45.121Z,100227.22
2023-02-13T12:46:41.107Z,100224.00
2023-02-13T12:49:29.169Z,100221.50
2023-02-13T12:52:21.910Z,100220.34
2023-02-13T12:55:09.833Z,100217.59
2023-02-13T12:58:16.704Z,100213.53
2023-02-13T13:00:52.769Z,100204.97
2023-02-13T13:03:40.970Z,100217.97
2023-02-13T13:06:36.386Z,100209.50
2023-02-13T13:09:23.085Z,100208.88
2023-02-13T13:12:14.021Z,100208.63
2023-02-13T13:15:08.788Z,100208.81
2023-02-13T13:17:41.116Z,100201.91
2023-02-13T13:20:45.178Z,100204.16
2023-02-13T13:23:18.352Z,100200.22
2023-02-13T13:26:03.542Z,100200.00
2023-02-13T13:28:38.029Z,100203.34
2023-02-13T13:31:06.002Z,100198.22
2023-02-13T13:33:34.558Z,100198.22
2023-02-13T13:36:01.057Z,100197.47
2023-02-13T13:38:36.412Z,100198.59
2023-02-13T13:41:17.108Z,100196.56
2023-02-13T13:43:56.199Z,100198.03
2023-02-13T13:46:44.597Z,100195.38
2023-02-13T13:49:29.961Z,100194.44
2023-02-13T13:52:24.345Z,100184.69
2023-02-13T13:54:54.498Z,100191.19
2023-02-13T13:57:47.751Z,100191.09
2023-02-13T14:00:15.808Z,100183.81
2023-02-13T14:02:49.706Z,100189.41
2023-02-13T14:05:32.472Z,100187.19
2023-02-13T14:08:04.313Z,100182.34
2023-02-13T14:10:30.795Z,100182.75
2023-02-13T14:12:57.304Z,100183.13
2023-02-13T14:15:42.622Z,100184.56
2023-02-13T14:18:15.200Z,100178.38
2023-02-13T14:20:50.928Z,100183.75
2023-02-13T14:26:33.640Z,100188.41
2023-02-13T14:29:11.397Z,100182.63
2023-02-13T14:31:42.183Z,100187.28
2023-02-13T14:34:11.703Z,100188.91
2023-02-13T14:36:42.133Z,100183.22
2023-02-13T14:39:30.059Z,100183.06
2023-02-13T14:42:02.196Z,100188.41
2023-02-13T14:44:49.457Z,100190.66
2023-02-13T14:47:25.059Z,100187.91
2023-02-13T14:49:52.797Z,100193.56
2023-02-13T14:52:26.485Z,100189.22
2023-02-13T14:55:06.974Z,100191.16
2023-02-13T14:57:39.108Z,100191.63
2023-02-13T15:00:43.529Z,100189.06
2023-02-13T15:03:31.448Z,100182.75
2023-02-13T15:06:03.684Z,100182.00
2023-02-13T15:08:36.822Z,100174.09
2023-02-13T15:11:03.478Z,100174.44
2023-02-13T15:16:14.760Z,100165.59
2023-02-13T15:18:52.884Z,100169.44
2023-02-13T15:21:22.873Z,100169.94
2023-02-13T15:23:55.774Z,100164.09
2023-02-13T15:26:28.834Z,100170.34
2023-02-13T15:29:25.899Z,100170.84
2023-02-13T15:31:54.786Z,100157.00
2023-02-13T15:34:28.287Z,100161.97
2023-02-13T15:36:56.213Z,100167.25
2023-02-13T15:39:30.841Z,100168.03
2023-02-13T15:42:02.720Z,100167.00
2023-02-13T15:44:32.956Z,100169.41
2023-02-13T15:47:08.268Z,100161.47
2023-02-13T15:52:36.586Z,100164.63
2023-02-13T15:55:03.414Z,100173.31
2023-02-13T15:57:30.297Z,100183.38
2023-02-13T15:59:58.971Z,100181.88
2023-02-13T16:02:42.956Z,100175.50
2023-02-13T16:05:12.791Z,100175.47
2023-02-13T16:07:51.138Z,100175.50
2023-02-13T16:10:32.684Z,100172.91
2023-02-13T16:13:03.186Z,100183.41
2023-02-13T16:15:32.059Z,100177.50
2023-02-13T16:17:59.353Z,100181.84
2023-02-13T16:20:28.839Z,100176.59
2023-02-13T16:23:02.943Z,100163.31
2023-02-13T16:25:37.354Z,100173.00
2023-02-13T16:28:09.753Z,100171.38
2023-02-13T16:30:41.157Z,100169.44
2023-02-13T16:33:16.544Z,100162.50
2023-02-13T16:35:50.907Z,100174.34
2023-02-13T16:41:19.878Z,100175.44
2023-02-13T16:43:52.031Z,100179.94
2023-02-13T16:46:24.375Z,100183.94
2023-02-13T16:48:56.824Z,100181.22
2023-02-13T16:51:52.474Z,100195.56
2023-02-13T16:54:32.226Z,100186.56
2023-02-13T16:57:15.780Z,100193.84
2023-02-13T16:59:58.228Z,100187.97
2023-02-13T17:02:30.285Z,100188.13
2023-02-13T17:04:56.813Z,100184.75
2023-02-13T17:07:23.350Z,100183.50
2023-02-13T17:10:18.848Z,100186.34
2023-02-13T17:15:25.991Z,100196.44
2023-02-13T17:17:53.722Z,100198.44
2023-02-13T17:20:26.172Z,100202.94
2023-02-13T17:22:55.041Z,100210.19
2023-02-13T17:25:25.469Z,100211.19
2023-02-13T17:27:55.482Z,100218.03
2023-02-13T17:30:28.174Z,100218.03
2023-02-13T17:35:32.851Z,100217.63
2023-02-13T17:37:59.752Z,100218.69
2023-02-13T17:40:29.656Z,100216.13
2023-02-13T17:42:57.314Z,100218.09
2023-02-13T17:45:26.706Z,100220.34
2023-02-13T17:47:53.757Z,100216.28
2023-02-13T17:50:21.303Z,100222.25
2023-02-13T17:52:49.138Z,100226.13
2023-02-13T17:55:21.692Z,100228.09
2023-02-13T17:57:49.257Z,100224.41
2023-02-13T18:00:16.862Z,100239.88
2023-02-13T18:02:43.823Z,100232.31
2023-02-13T18:05:11.111Z,100238.28
2023-02-13T18:07:39.524Z,100239.13
2023-02-13T18:10:11.462Z,100239.00
2023-02-13T18:12:39.852Z,100239.78
2023-02-13T18:15:06.677Z,100247.34
2023-02-13T18:17:33.175Z,100239.81
2023-02-13T18:19:59.685Z,100244.47
2023-02-13T18:22:26.445Z,100242.53
2023-02-13T18:24:53.050Z,100248.50
2023-02-13T18:27:19.561Z,100246.13
2023-02-13T18:29:46.349Z,100243.69
2023-02-13T18:32:13.016Z,100249.13
2023-02-13T18:34:40.387Z,100249.66
2023-02-13T18:37:07.833Z,100248.88
2023-02-13T18:39:34.971Z,100251.94
2023-02-13T18:42:01.672Z,100257.28
2023-02-13T18:44:29.095Z,100259.50
2023-02-13T18:46:55.965Z,100259.53
2023-02-13T18:49:22.677Z,100263.84
2023-02-13T18:51:49.385Z,100266.03
2023-02-13T18:54:18.028Z,100265.25
2023-02-13T18:56:45.739Z,100268.53
2023-02-13T18:59:12.273Z,100265.25
2023-02-13T19:01:39.216Z,100263.94
2023-02-13T19:04:06.512Z,100266.09
2023-02-13T19:06:33.183Z,100260.97
2023-02-13T19:08:59.819Z,100270.44
2023-02-13T19:11:27.712Z,100262.63
2023-02-13T19:13:56.264Z,100262.91
2023-02-13T19:16:23.114Z,100266.41
2023-02-13T19:18:53.145Z,100259.41
2023-02-13T19:21:21.455Z,100261.81
2023-02-13T19:23:48.340Z,100260.75
2023-02-13T19:26:18.054Z,100264.00
2023-02-13T19:28:45.046Z,100255.06
2023-02-13T19:31:20.504Z,100259.13
2023-02-13T19:33:48.063Z,100255.91
2023-02-13T19:36:19.420Z,100261.84
2023-02-13T19:38:46.856Z,100269.13
2023-02-13T19:41:17.961Z,100255.09
2023-02-13T19:43:50.869Z,100258.84
2023-02-13T19:46:19.296Z,100254.53
2023-02-13T19:48:49.578Z,100253.19
2023-02-13T19:53:57.900Z,100264.00
2023-02-13T19:56:27.199Z,100257.53
2023-02-13T19:58:54.659Z,100242.94
2023-02-13T20:01:23.328Z,100243.22
2023-02-13T20:03:50.328Z,100247.25
2023-02-13T20:06:23.722Z,100245.63
2023-02-13T20:08:52.318Z,100242.94
2023-02-13T20:11:21.372Z,100247.00
2023-02-13T20:13:52.407Z,100239.44
2023-02-13T20:16:18.995Z,100241.03
2023-02-13T20:18:45.612Z,100252.13
2023-02-13T20:21:14.517Z,100249.16
2023-02-13T20:23:42.306Z,100248.84
2023-02-13T20:26:14.006Z,100252.66
2023-02-13T20:28:42.033Z,100253.97
2023-02-13T20:31:11.033Z,100258.03
2023-02-13T20:33:38.847Z,100256.94
2023-02-13T20:36:14.228Z,100254.53
2023-02-13T20:38:41.955Z,100262.88
2023-02-13T20:41:10.838Z,100260.19
2023-02-13T20:43:37.738Z,100256.41
2023-02-13T20:46:05.499Z,100259.91
2023-02-13T20:48:32.114Z,100247.22
2023-02-13T20:51:03.591Z,100243.97
2023-02-13T20:53:30.882Z,100246.41
2023-02-13T20:56:24.932Z,100245.59
2023-02-13T20:58:54.865Z,100246.94
2023-02-13T21:01:27.335Z,100246.91
2023-02-13T21:03:55.822Z,100236.13
2023-02-13T21:06:25.814Z,100234.25
2023-02-13T21:11:24.770Z,100239.63
2023-02-13T21:13:51.393Z,100235.88
2023-02-13T21:16:24.045Z,100229.31
2023-02-13T21:18:56.317Z,100232.03
2023-02-13T21:23:58.251Z,100231.00
2023-02-13T21:26:26.070Z,100237.72
2023-02-13T21:28:53.275Z,100231.53
2023-02-13T21:31:25.530Z,100228.53
2023-02-13T21:33:52.636Z,100237.44
2023-02-13T21:36:19.559Z,100230.69
2023-02-13T21:38:46.082Z,100227.75
2023-02-13T21:41:15.505Z,100233.66
2023-02-13T21:43:46.498Z,100232.06
2023-02-13T21:46:18.679Z,100230.16
2023-02-13T21:48:45.935Z,100227.75
2023-02-13T21:51:15.478Z,100218.03
2023-02-13T21:53:42.926Z,100217.47
2023-02-13T21:56:15.599Z,100222.59
2023-02-13T21:58:43.681Z,100218.53
2023-02-13T22:01:26.795Z,100221.75
2023-02-13T22:04:00.525Z,100216.31
2023-02-13T22:09:05.041Z,100223.91
2023-02-13T22:14:17.066Z,100212.78
2023-02-13T22:16:45.273Z,100218.19
2023-02-13T22:19:14.392Z,100220.88
2023-02-13T22:21:41.225Z,100223.56
2023-02-13T22:24:07.837Z,100224.94
2023-02-13T22:26:37.287Z,100219.53
2023-02-13T22:29:06.688Z,100222.50
2023-02-13T22:31:33.704Z,100228.66
2023-02-13T22:34:04.998Z,100234.81
2023-02-13T22:36:41.014Z,100229.72
2023-02-13T22:39:09.448Z,100233.00
2023-02-13T22:41:36.373Z,100226.22
2023-02-13T22:44:02.914Z,100217.84
2023-02-13T22:46:31.652Z,100224.56
2023-02-13T22:48:59.498Z,100228.88
2023-02-13T22:51:29.481Z,100229.94
2023-02-13T22:53:57.686Z,100229.72
2023-02-13T22:56:26.584Z,100226.78
2023-02-13T22:58:53.385Z,100233.75
2023-02-13T23:01:22.611Z,100228.06
2023-02-13T23:06:31.336Z,100218.34
2023-02-13T23:08:57.900Z,100215.63
2023-02-13T23:11:46.162Z,100220.72
2023-02-13T23:14:13.420Z,100222.59
2023-02-13T23:16:59.582Z,100225.56
2023-02-13T23:19:27.695Z,100228.25
2023-02-13T23:21:54.372Z,100227.75
2023-02-13T23:24:21.651Z,100221.44
2023-02-13T23:26:48.200Z,100222.50
2023-02-13T23:29:14.735Z,100210.41
2023-02-13T23:31:41.312Z,100213.31
2023-02-13T23:36:41.363Z,100203.13
2023-02-13T23:39:07.953Z,100209.84
2023-02-13T23:41:34.436Z,100199.03
2023-02-13T23:44:01.007Z,100205.78
2023-02-13T23:46:27.699Z,100201.50
2023-02-13T23:48:54.260Z,100202.53
2023-02-13T23:51:23.122Z,100204.75
2023-02-13T23:53:49.636Z,100200.91
2023-02-13T23:56:16.168Z,100204.75
